Terminal Aerodrome Forecast
Issued by NWS Jacksonville, FL

Home | Current Version | Previous Version | Text Only | Print | Product List | Glossary On
Versions: 1 2 3 4 5 6 7 8 9 10 11 12 13 14 15 16 17 18 19 20 21 22 23 24 25 26 27 28 29 30 31 32 33 34 35 36 37 38 39 40
000
FTUS42 KJAX 010521
TAFJAX
TAF
KJAX 010521Z 0106/0206 25006KT P6SM SCT250
      TEMPO 0108/0112 3SM BR
     FM011500 24007KT P6SM SCT040
     FM011800 26010KT P6SM VCTS BKN035CB
     FM020000 22006KT P6SM SCT040 BKN120
     FM020400 24005KT P6SM SCT250=

USA.gov is the U.S. government's official web portal to all federal, state and local government web resources and services.